Time;durP1;ratioP1;P1;durP2;ratioP2;P2;SDS_P1;SDS_P2;PMS_P1;PMS_P2;Temp;Humidity;BMP_temperature;BMP_pressure;BME280_temperature;BME280_humidity;BME280_pressure;Samples;Min_cycle;Max_cycle;Signal;HPM_P1;HPM_P2
2023/05/05 00:00:57;;;;;;;12.65;4.65;;;;;;;;;;5078125;28;20047;-81
2023/05/05 00:03:23;;;;;;;12.63;4.93;;;;;;;;;;5070307;28;20040;-81
2023/05/05 00:05:50;;;;;;;8.68;5.00;;;;;;;;;;5075549;28;20057;-82
2023/05/05 00:08:16;;;;;;;9.68;5.00;;;;;;;;;;5079760;28;20048;-81
2023/05/05 00:10:45;;;;;;;11.80;5.53;;;;;;;;;;5060340;28;20041;-82
2023/05/05 00:13:12;;;;;;;12.68;5.07;;;;;;;;;;5084851;28;20119;-81
2023/05/05 00:15:38;;;;;;;13.00;4.97;;;;;;;;;;5080308;28;20037;-81
2023/05/05 00:18:04;;;;;;;13.77;5.70;;;;;;;;;;5080655;28;20044;-81
2023/05/05 00:20:30;;;;;;;9.00;4.88;;;;;;;;;;5080227;28;20047;-82
2023/05/05 00:22:56;;;;;;;10.48;5.60;;;;;;;;;;5080422;28;20078;-81
2023/05/05 00:25:22;;;;;;;13.45;5.75;;;;;;;;;;5080087;28;20044;-81
2023/05/05 00:27:49;;;;;;;13.68;5.63;;;;;;;;;;5079409;28;20048;-81
2023/05/05 00:30:15;;;;;;;11.40;5.45;;;;;;;;;;5079676;28;20036;-81
2023/05/05 00:32:41;;;;;;;9.05;5.20;;;;;;;;;;5078489;28;20052;-82
2023/05/05 00:35:08;;;;;;;12.35;5.40;;;;;;;;;;5078295;28;20074;-82
2023/05/05 00:37:34;;;;;;;8.57;5.15;;;;;;;;;;5077467;28;20047;-82
2023/05/05 00:40:00;;;;;;;10.40;5.50;;;;;;;;;;5079036;28;20507;-83
2023/05/05 00:42:26;;;;;;;11.70;5.05;;;;;;;;;;5077554;28;20055;-81
2023/05/05 00:44:53;;;;;;;11.90;5.72;;;;;;;;;;5058942;28;20052;-81
2023/05/05 00:47:19;;;;;;;12.18;5.28;;;;;;;;;;5059298;28;20041;-81
2023/05/05 00:49:45;;;;;;;12.65;5.35;;;;;;;;;;5071664;28;20094;-81
2023/05/05 00:52:11;;;;;;;9.88;5.03;;;;;;;;;;5079834;28;20061;-81
2023/05/05 00:54:37;;;;;;;13.00;4.95;;;;;;;;;;5083072;28;20496;-82
2023/05/05 00:57:04;;;;;;;10.43;4.95;;;;;;;;;;5081780;28;20052;-81
2023/05/05 00:59:30;;;;;;;9.18;5.20;;;;;;;;;;5081455;28;20040;-81
2023/05/05 01:01:56;;;;;;;10.98;5.53;;;;;;;;;;5082196;28;20052;-81
2023/05/05 01:04:22;;;;;;;11.32;5.50;;;;;;;;;;5065740;28;20064;-82
2023/05/05 01:07:13;;;;;;;8.80;4.95;;;;;;;;;;5077427;28;20403;-82
2023/05/05 01:09:39;;;;;;;12.65;5.13;;;;;;;;;;5076281;28;20040;-81
2023/05/05 01:12:11;;;;;;;8.70;4.57;;;;;;;;;;5086304;28;20105;-80
2023/05/05 01:14:38;;;;;;;10.20;5.38;;;;;;;;;;5086263;28;20090;-82
2023/05/05 01:17:10;;;;;;;8.05;4.78;;;;;;;;;;5088851;28;20040;-81
2023/05/05 01:19:45;;;;;;;10.27;4.93;;;;;;;;;;5083774;28;20041;-82
2023/05/05 01:22:12;;;;;;;8.85;5.25;;;;;;;;;;5080711;28;20384;-81
2023/05/05 01:24:38;;;;;;;12.13;4.88;;;;;;;;;;5082386;28;20040;-82
2023/05/05 01:27:11;;;;;;;10.05;4.80;;;;;;;;;;5082098;28;20091;-81
2023/05/05 01:29:56;;;;;;;11.80;5.20;;;;;;;;;;5081188;28;20036;-81
2023/05/05 01:32:25;;;;;;;8.35;4.63;;;;;;;;;;5081659;28;20044;-81
2023/05/05 01:34:51;;;;;;;12.35;4.90;;;;;;;;;;5080690;28;20513;-82
2023/05/05 01:37:26;;;;;;;9.20;4.38;;;;;;;;;;5081736;28;20048;-81
2023/05/05 01:39:55;;;;;;;10.15;5.10;;;;;;;;;;5071494;28;20098;-81
2023/05/05 01:42:21;;;;;;;8.52;5.07;;;;;;;;;;5081850;28;20106;-81
2023/05/05 01:44:48;;;;;;;9.40;4.70;;;;;;;;;;5080067;28;20051;-81
2023/05/05 01:47:16;;;;;;;9.75;5.00;;;;;;;;;;5082233;28;20048;-81
2023/05/05 01:49:43;;;;;;;8.25;4.25;;;;;;;;;;5082228;28;20052;-83
2023/05/05 01:52:09;;;;;;;10.93;4.63;;;;;;;;;;5082523;28;20391;-82
2023/05/05 01:54:36;;;;;;;8.52;4.28;;;;;;;;;;5100808;28;20052;-81
2023/05/05 01:57:06;;;;;;;11.20;4.60;;;;;;;;;;5092253;28;20049;-82
2023/05/05 01:59:33;;;;;;;10.68;4.65;;;;;;;;;;5080522;28;20088;-81
2023/05/05 02:02:00;;;;;;;9.80;4.90;;;;;;;;;;5079610;28;20044;-83
2023/05/05 02:04:27;;;;;;;8.45;4.68;;;;;;;;;;5058973;28;20041;-81
2023/05/05 02:06:55;;;;;;;9.90;4.70;;;;;;;;;;5089305;28;20062;-82
2023/05/05 02:09:21;;;;;;;10.95;4.45;;;;;;;;;;5079934;28;20041;-82
2023/05/05 02:11:48;;;;;;;10.18;4.63;;;;;;;;;;5082821;28;20048;-81
2023/05/05 02:14:16;;;;;;;7.97;4.90;;;;;;;;;;5069705;28;20080;-81
2023/05/05 02:16:42;;;;;;;9.60;4.47;;;;;;;;;;5063380;28;20077;-81
2023/05/05 02:19:09;;;;;;;14.40;4.95;;;;;;;;;;5084024;28;20048;-81
2023/05/05 02:21:35;;;;;;;8.15;4.70;;;;;;;;;;5066062;28;20048;-81
2023/05/05 02:24:01;;;;;;;10.05;4.85;;;;;;;;;;5082408;28;20487;-82
2023/05/05 02:26:28;;;;;;;11.75;4.60;;;;;;;;;;5082127;28;20048;-81
2023/05/05 02:29:06;;;;;;;13.02;4.80;;;;;;;;;;5098100;28;20037;-81
2023/05/05 02:31:34;;;;;;;9.80;4.88;;;;;;;;;;5083611;28;20445;-81
2023/05/05 02:34:01;;;;;;;8.32;4.43;;;;;;;;;;5097487;28;20080;-82
2023/05/05 02:36:29;;;;;;;11.65;5.30;;;;;;;;;;5069710;28;20036;-80
2023/05/05 02:38:57;;;;;;;9.13;4.50;;;;;;;;;;5082758;28;20080;-81
2023/05/05 02:41:25;;;;;;;10.52;4.30;;;;;;;;;;5087647;28;20032;-81
2023/05/05 02:43:52;;;;;;;9.30;4.55;;;;;;;;;;5052991;28;20048;-81
2023/05/05 02:46:18;;;;;;;12.70;4.80;;;;;;;;;;5076422;28;20040;-82
2023/05/05 02:48:45;;;;;;;9.75;4.65;;;;;;;;;;5062516;28;20053;-80
2023/05/05 02:51:11;;;;;;;8.77;4.50;;;;;;;;;;5080790;28;20136;-81
2023/05/05 02:53:37;;;;;;;9.68;5.32;;;;;;;;;;5079646;28;20048;-82
2023/05/05 02:56:10;;;;;;;8.70;4.68;;;;;;;;;;5080828;28;20079;-81
2023/05/05 02:58:48;;;;;;;8.85;4.40;;;;;;;;;;5079443;28;20102;-81
2023/05/05 03:01:34;;;;;;;9.45;5.00;;;;;;;;;;5078715;28;20039;-82
2023/05/05 03:04:07;;;;;;;10.18;5.43;;;;;;;;;;5043213;28;20044;-81
2023/05/05 03:06:38;;;;;;;9.70;5.10;;;;;;;;;;5079651;28;20051;-81
2023/05/05 03:09:05;;;;;;;;;;;;;;;;;;5080430;28;20064;-81
2023/05/05 03:11:45;;;;;;;9.85;5.05;;;;;;;;;;5079927;28;19928;-81
2023/05/05 03:14:12;;;;;;;8.77;4.88;;;;;;;;;;5083676;28;20044;-81
2023/05/05 03:16:40;;;;;;;10.93;4.60;;;;;;;;;;5080624;28;20107;-80
2023/05/05 03:19:10;;;;;;;9.45;5.80;;;;;;;;;;5080034;28;20098;-81
2023/05/05 03:21:36;;;;;;;13.38;5.18;;;;;;;;;;5080221;28;20055;-82
2023/05/05 03:24:11;;;;;;;13.05;5.70;;;;;;;;;;5098629;28;20048;-82
2023/05/05 03:26:37;;;;;;;11.43;5.22;;;;;;;;;;5087167;28;20040;-82
2023/05/05 03:29:05;;;;;;;10.52;5.28;;;;;;;;;;5081488;28;20037;-80
2023/05/05 03:31:31;;;;;;;10.15;5.88;;;;;;;;;;5070862;28;20091;-81
2023/05/05 03:33:57;;;;;;;9.63;5.43;;;;;;;;;;5080190;28;20044;-81
2023/05/05 03:36:23;;;;;;;9.98;5.40;;;;;;;;;;5078231;28;20043;-81
2023/05/05 03:38:49;;;;;;;12.75;5.88;;;;;;;;;;5078780;28;20097;-81
2023/05/05 03:41:15;;;;;;;11.63;5.72;;;;;;;;;;5072236;28;20051;-81
2023/05/05 03:43:42;;;;;;;10.27;5.70;;;;;;;;;;5070093;28;20040;-81
2023/05/05 03:46:09;;;;;;;11.18;5.88;;;;;;;;;;5079113;28;20076;-80
2023/05/05 03:48:35;;;;;;;11.50;5.88;;;;;;;;;;5078812;28;20123;-81
2023/05/05 03:51:01;;;;;;;10.07;5.70;;;;;;;;;;5077568;28;20411;-81
2023/05/05 03:53:27;;;;;;;13.60;5.82;;;;;;;;;;5078035;28;20143;-82
2023/05/05 03:55:53;;;;;;;12.93;5.95;;;;;;;;;;5077375;28;20076;-81
2023/05/05 03:58:19;;;;;;;14.75;6.25;;;;;;;;;;5077765;28;20040;-82
2023/05/05 04:00:45;;;;;;;9.30;5.35;;;;;;;;;;5076460;28;20508;-80
2023/05/05 04:03:11;;;;;;;11.95;6.20;;;;;;;;;;5075270;28;20051;-81
2023/05/05 04:05:37;;;;;;;11.27;6.03;;;;;;;;;;5074348;28;20060;-82
2023/05/05 04:08:04;;;;;;;10.98;6.47;;;;;;;;;;5074043;28;20495;-82
2023/05/05 04:10:30;;;;;;;11.00;6.25;;;;;;;;;;5069612;28;20123;-82
2023/05/05 04:12:56;;;;;;;11.98;5.57;;;;;;;;;;5069293;28;20045;-81
2023/05/05 04:15:22;;;;;;;9.20;6.00;;;;;;;;;;5066142;28;20041;-82
2023/05/05 04:17:48;;;;;;;10.43;6.07;;;;;;;;;;5068869;28;20044;-82
2023/05/05 04:20:14;;;;;;;11.25;5.88;;;;;;;;;;5065540;28;20309;-82
2023/05/05 04:22:40;;;;;;;12.70;5.63;;;;;;;;;;5061735;28;20044;-82
2023/05/05 04:25:07;;;;;;;10.23;5.60;;;;;;;;;;5067055;28;20045;-81
2023/05/05 04:27:33;;;;;;;13.07;7.00;;;;;;;;;;5069356;28;20094;-81
2023/05/05 04:29:59;;;;;;;16.15;6.75;;;;;;;;;;5070155;28;20044;-83
2023/05/05 04:32:25;;;;;;;15.40;7.03;;;;;;;;;;5070912;28;20052;-81
2023/05/05 04:34:52;;;;;;;17.85;9.13;;;;;;;;;;5071247;28;20089;-80
2023/05/05 04:37:18;;;;;;;18.77;8.07;;;;;;;;;;5069817;28;20036;-79
2023/05/05 04:39:45;;;;;;;17.55;8.80;;;;;;;;;;5069272;28;20205;-78
2023/05/05 04:42:11;;;;;;;15.80;8.23;;;;;;;;;;5071022;28;20044;-81
2023/05/05 04:44:38;;;;;;;14.98;7.90;;;;;;;;;;5070606;28;20079;-81
2023/05/05 04:47:04;;;;;;;22.15;8.63;;;;;;;;;;5077870;28;20064;-80
2023/05/05 04:49:30;;;;;;;19.13;8.52;;;;;;;;;;5061438;28;20173;-81
2023/05/05 04:51:57;;;;;;;17.52;9.57;;;;;;;;;;5066143;28;20135;-81
2023/05/05 04:54:23;;;;;;;14.90;9.60;;;;;;;;;;5063312;28;20053;-80
2023/05/05 04:56:49;;;;;;;17.77;8.93;;;;;;;;;;5078890;28;20044;-80
2023/05/05 04:59:15;;;;;;;17.35;9.18;;;;;;;;;;5078539;28;20511;-84
2023/05/05 05:01:41;;;;;;;13.05;8.35;;;;;;;;;;5077098;28;20403;-81
2023/05/05 05:04:09;;;;;;;13.60;8.32;;;;;;;;;;5076758;28;20036;-82
2023/05/05 05:06:35;;;;;;;14.80;8.15;;;;;;;;;;5076629;28;20045;-81
2023/05/05 05:09:01;;;;;;;14.15;8.68;;;;;;;;;;5077168;28;20043;-83
2023/05/05 05:11:27;;;;;;;12.48;7.95;;;;;;;;;;5078989;28;20055;-81
2023/05/05 05:13:53;;;;;;;13.85;7.57;;;;;;;;;;5080336;28;20349;-82
2023/05/05 05:16:20;;;;;;;12.68;7.47;;;;;;;;;;5068902;28;20045;-82
2023/05/05 05:18:46;;;;;;;14.98;8.00;;;;;;;;;;5077057;28;20079;-82
2023/05/05 05:21:12;;;;;;;10.40;7.78;;;;;;;;;;5078597;28;20048;-82
2023/05/05 05:23:38;;;;;;;12.30;8.40;;;;;;;;;;5079406;28;20156;-82
2023/05/05 05:26:05;;;;;;;16.15;9.32;;;;;;;;;;5078906;28;20044;-82
2023/05/05 05:28:31;;;;;;;14.70;8.65;;;;;;;;;;5077279;28;20044;-83
2023/05/05 05:30:57;;;;;;;15.48;8.63;;;;;;;;;;5075423;28;20051;-82
2023/05/05 05:33:23;;;;;;;13.93;8.52;;;;;;;;;;5083619;28;20045;-82
2023/05/05 05:35:49;;;;;;;14.25;8.23;;;;;;;;;;5085875;28;20049;-81
2023/05/05 05:38:16;;;;;;;15.45;8.52;;;;;;;;;;5085356;28;20094;-81
2023/05/05 05:40:42;;;;;;;16.25;8.27;;;;;;;;;;5079838;28;20044;-81
2023/05/05 05:43:08;;;;;;;12.68;8.30;;;;;;;;;;5080476;28;20043;-81
2023/05/05 05:45:34;;;;;;;17.65;9.57;;;;;;;;;;5080445;28;20052;-81
2023/05/05 05:48:01;;;;;;;13.52;9.10;;;;;;;;;;5080811;28;20045;-82
2023/05/05 05:50:27;;;;;;;14.05;8.68;;;;;;;;;;5081412;28;20071;-82
2023/05/05 05:52:54;;;;;;;15.90;8.90;;;;;;;;;;5081234;28;20049;-82
2023/05/05 05:55:20;;;;;;;14.23;8.27;;;;;;;;;;5080943;28;20064;-82
2023/05/05 05:57:46;;;;;;;12.48;8.45;;;;;;;;;;5078088;28;20037;-81
2023/05/05 06:00:14;;;;;;;14.13;8.32;;;;;;;;;;5073427;28;20396;-82
2023/05/05 06:02:40;;;;;;;15.63;8.32;;;;;;;;;;5069259;28;20395;-81
2023/05/05 06:05:06;;;;;;;16.13;9.10;;;;;;;;;;5076416;28;20047;-82
2023/05/05 06:07:32;;;;;;;15.55;8.98;;;;;;;;;;5080315;28;20475;-82
2023/05/05 06:09:58;;;;;;;17.10;8.40;;;;;;;;;;5078820;28;20044;-82
2023/05/05 06:12:25;;;;;;;22.50;8.50;;;;;;;;;;5070577;28;20056;-82
2023/05/05 06:14:51;;;;;;;12.52;8.63;;;;;;;;;;5071856;28;20499;-82
2023/05/05 06:17:17;;;;;;;11.15;7.85;;;;;;;;;;5074223;28;20052;-81
2023/05/05 06:19:43;;;;;;;12.45;7.90;;;;;;;;;;5072561;28;20055;-82
2023/05/05 06:22:09;;;;;;;12.07;7.65;;;;;;;;;;5074551;28;20045;-81
2023/05/05 06:24:35;;;;;;;14.57;7.60;;;;;;;;;;5080342;28;20082;-82
2023/05/05 06:27:01;;;;;;;11.48;8.02;;;;;;;;;;5077093;28;20047;-83
2023/05/05 06:29:27;;;;;;;14.15;8.15;;;;;;;;;;5074454;28;20049;-82
2023/05/05 06:31:53;;;;;;;12.85;8.38;;;;;;;;;;5073668;28;20064;-82
2023/05/05 06:34:20;;;;;;;12.70;8.75;;;;;;;;;;5073846;28;20051;-82
2023/05/05 06:36:46;;;;;;;14.57;8.70;;;;;;;;;;5073875;28;20140;-82
2023/05/05 06:39:12;;;;;;;14.63;8.15;;;;;;;;;;5072015;28;20410;-82
2023/05/05 06:41:38;;;;;;;11.50;7.78;;;;;;;;;;5078219;28;20039;-82
2023/05/05 06:44:04;;;;;;;14.82;9.13;;;;;;;;;;5088834;28;20044;-81
2023/05/05 06:46:30;;;;;;;11.32;8.10;;;;;;;;;;5092245;28;20073;-81
2023/05/05 06:48:56;;;;;;;13.40;7.63;;;;;;;;;;5088342;28;20128;-82
2023/05/05 06:51:22;;;;;;;17.27;8.23;;;;;;;;;;5069062;28;20061;-83
2023/05/05 06:53:49;;;;;;;12.63;8.75;;;;;;;;;;5080994;28;20036;-81
2023/05/05 06:56:15;;;;;;;9.90;7.88;;;;;;;;;;5080504;28;20040;-81
2023/05/05 06:58:41;;;;;;;14.07;8.57;;;;;;;;;;5080749;28;20048;-83
2023/05/05 07:01:07;;;;;;;13.30;8.55;;;;;;;;;;5078617;28;20049;-82
2023/05/05 07:03:33;;;;;;;15.88;9.18;;;;;;;;;;5080729;28;20093;-84
2023/05/05 07:05:59;;;;;;;14.38;8.68;;;;;;;;;;5079587;28;20037;-82
2023/05/05 07:08:25;;;;;;;13.82;8.90;;;;;;;;;;5080376;28;20048;-83
2023/05/05 07:10:51;;;;;;;14.90;8.68;;;;;;;;;;5077441;28;20036;-83
2023/05/05 07:13:17;;;;;;;14.20;8.82;;;;;;;;;;5067376;28;20637;-84
2023/05/05 07:15:45;;;;;;;11.40;8.80;;;;;;;;;;5080077;28;20036;-83
2023/05/05 07:18:15;;;;;;;13.85;8.98;;;;;;;;;;5079079;28;20375;-82
2023/05/05 07:20:41;;;;;;;13.15;9.23;;;;;;;;;;5078475;28;20384;-81
2023/05/05 07:23:07;;;;;;;14.93;9.27;;;;;;;;;;5077787;28;20047;-81
2023/05/05 07:25:33;;;;;;;13.50;8.95;;;;;;;;;;5074316;28;20037;-82
2023/05/05 07:27:59;;;;;;;13.13;9.50;;;;;;;;;;5072672;28;20128;-82
2023/05/05 07:30:25;;;;;;;11.75;8.77;;;;;;;;;;5076780;28;20036;-81
2023/05/05 07:32:51;;;;;;;13.93;9.18;;;;;;;;;;5076906;28;20605;-82
2023/05/05 07:35:18;;;;;;;11.43;8.68;;;;;;;;;;5077190;28;20062;-85
2023/05/05 07:37:44;;;;;;;14.10;9.02;;;;;;;;;;5076738;28;20044;-84
2023/05/05 07:40:11;;;;;;;13.05;9.38;;;;;;;;;;5080231;28;20051;-82
2023/05/05 07:42:37;;;;;;;13.15;9.38;;;;;;;;;;5084907;28;20068;-83
2023/05/05 07:45:03;;;;;;;13.63;8.90;;;;;;;;;;5083509;28;20041;-82
2023/05/05 07:47:30;;;;;;;13.18;9.00;;;;;;;;;;5084897;28;20080;-82
2023/05/05 07:49:56;;;;;;;15.18;8.75;;;;;;;;;;5083361;28;20053;-82
2023/05/05 07:52:22;;;;;;;13.98;8.45;;;;;;;;;;5081570;28;20060;-82
2023/05/05 07:54:48;;;;;;;13.13;9.02;;;;;;;;;;5080920;28;20056;-81
2023/05/05 07:57:14;;;;;;;12.65;8.38;;;;;;;;;;5080549;28;20044;-81
2023/05/05 07:59:42;;;;;;;11.75;8.02;;;;;;;;;;5080824;28;20048;-83
2023/05/05 08:02:12;;;;;;;13.02;8.60;;;;;;;;;;5079504;28;20107;-82
2023/05/05 08:04:42;;;;;;;10.07;7.95;;;;;;;;;;5085767;28;20048;-82
2023/05/05 08:07:08;;;;;;;11.63;8.13;;;;;;;;;;5085247;28;20105;-83
2023/05/05 08:09:35;;;;;;;14.18;9.10;;;;;;;;;;5085351;28;20044;-82
2023/05/05 08:12:01;;;;;;;12.77;8.77;;;;;;;;;;5086219;28;20040;-82
2023/05/05 08:14:27;;;;;;;10.10;8.63;;;;;;;;;;5085704;28;20044;-82
2023/05/05 08:16:54;;;;;;;12.43;8.25;;;;;;;;;;5085003;28;20040;-81
2023/05/05 08:19:20;;;;;;;13.40;9.05;;;;;;;;;;5083258;28;20044;-83
2023/05/05 08:21:46;;;;;;;11.35;9.00;;;;;;;;;;5084633;28;20111;-84
2023/05/05 08:24:12;;;;;;;13.95;10.13;;;;;;;;;;5083644;28;20048;-82
2023/05/05 08:26:38;;;;;;;11.48;9.40;;;;;;;;;;5080477;28;20041;-83
2023/05/05 08:29:04;;;;;;;11.27;8.95;;;;;;;;;;5081111;28;20048;-82
2023/05/05 08:31:35;;;;;;;12.05;9.88;;;;;;;;;;5066782;28;20044;-83
2023/05/05 08:34:01;;;;;;;13.27;10.73;;;;;;;;;;5094058;28;20040;-82
2023/05/05 08:36:28;;;;;;;16.02;10.65;;;;;;;;;;5088352;28;20044;-83
2023/05/05 08:38:54;;;;;;;16.67;11.55;;;;;;;;;;5087879;28;20048;-81
2023/05/05 08:41:20;;;;;;;15.70;11.05;;;;;;;;;;5085973;28;20495;-82
2023/05/05 08:43:48;;;;;;;16.45;10.93;;;;;;;;;;5092660;28;20043;-82
2023/05/05 08:46:14;;;;;;;16.60;10.63;;;;;;;;;;5105273;28;20076;-83
2023/05/05 08:48:41;;;;;;;18.20;12.25;;;;;;;;;;5090451;28;20040;-83
2023/05/05 08:51:08;;;;;;;13.60;10.98;;;;;;;;;;5084556;28;20071;-83
2023/05/05 08:53:40;;;;;;;15.60;11.93;;;;;;;;;;5085453;28;20060;-82
2023/05/05 08:56:07;;;;;;;13.40;11.93;;;;;;;;;;5086020;28;20074;-83
2023/05/05 08:58:36;;;;;;;15.50;11.80;;;;;;;;;;5086646;28;20040;-82
2023/05/05 09:01:02;;;;;;;15.10;11.40;;;;;;;;;;5086466;28;20076;-82
2023/05/05 09:03:29;;;;;;;19.80;13.30;;;;;;;;;;5090025;28;20540;-83
2023/05/05 09:05:55;;;;;;;15.13;12.40;;;;;;;;;;5088282;28;20052;-82
2023/05/05 09:08:21;;;;;;;14.35;12.43;;;;;;;;;;5085886;28;20118;-82
2023/05/05 09:10:48;;;;;;;16.05;12.70;;;;;;;;;;5082333;28;20052;-83
2023/05/05 09:13:14;;;;;;;14.80;11.85;;;;;;;;;;5072820;28;20044;-82
2023/05/05 09:15:41;;;;;;;17.45;13.70;;;;;;;;;;5084709;28;20045;-84
2023/05/05 09:18:13;;;;;;;19.25;14.05;;;;;;;;;;5084369;28;20045;-82
2023/05/05 09:20:40;;;;;;;17.27;13.00;;;;;;;;;;5084176;28;20041;-81
2023/05/05 09:23:07;;;;;;;15.80;13.25;;;;;;;;;;5083323;28;20048;-82
2023/05/05 09:25:33;;;;;;;15.82;13.45;;;;;;;;;;5069413;28;20052;-83
2023/05/05 09:28:07;;;;;;;18.42;14.10;;;;;;;;;;5070119;28;20510;-81
2023/05/05 09:30:34;;;;;;;15.70;12.75;;;;;;;;;;5076793;28;20040;-82
2023/05/05 09:33:01;;;;;;;16.30;13.95;;;;;;;;;;5077407;28;20116;-81
2023/05/05 09:35:27;;;;;;;16.05;13.63;;;;;;;;;;5073143;28;20041;-81
2023/05/05 09:37:53;;;;;;;15.82;14.18;;;;;;;;;;5079746;28;20041;-82
2023/05/05 09:40:20;;;;;;;15.30;13.60;;;;;;;;;;5078908;28;20043;-81
2023/05/05 09:42:46;;;;;;;16.80;14.50;;;;;;;;;;5080015;28;20036;-81
2023/05/05 09:45:18;;;;;;;18.10;14.20;;;;;;;;;;5080556;28;20036;-82
2023/05/05 09:47:45;;;;;;;18.65;14.32;;;;;;;;;;5081989;28;20040;-83
2023/05/05 09:50:14;;;;;;;18.63;14.13;;;;;;;;;;5082951;28;20044;-82
2023/05/05 09:52:41;;;;;;;18.48;14.50;;;;;;;;;;5085999;28;20057;-82
2023/05/05 09:55:16;;;;;;;16.90;14.10;;;;;;;;;;5083093;28;20044;-82
2023/05/05 09:57:43;;;;;;;16.85;12.60;;;;;;;;;;5084980;28;20419;-82
2023/05/05 10:00:09;;;;;;;17.65;13.45;;;;;;;;;;5083057;28;20128;-82
2023/05/05 10:02:37;;;;;;;16.70;14.18;;;;;;;;;;5081166;28;20033;-82
2023/05/05 10:05:10;;;;;;;16.98;14.35;;;;;;;;;;5082092;28;20040;-82
2023/05/05 10:07:37;;;;;;;17.50;14.88;;;;;;;;;;5081506;28;20036;-81
2023/05/05 10:10:04;;;;;;;15.32;13.73;;;;;;;;;;5081074;28;20094;-81
2023/05/05 10:12:31;;;;;;;17.33;14.52;;;;;;;;;;5081386;28;20048;-81
2023/05/05 10:15:01;;;;;;;16.67;14.95;;;;;;;;;;5076599;28;20287;-82
2023/05/05 10:17:30;;;;;;;18.08;14.40;;;;;;;;;;5078938;28;20621;-81
2023/05/05 10:19:58;;;;;;;20.48;14.32;;;;;;;;;;5081159;28;20059;-82
2023/05/05 10:22:25;;;;;;;17.30;14.70;;;;;;;;;;5082094;28;20044;-81
2023/05/05 10:25:11;;;;;;;16.63;14.90;;;;;;;;;;5081452;28;20040;-82
2023/05/05 10:27:43;;;;;;;15.57;13.98;;;;;;;;;;5082100;28;20132;-81
2023/05/05 10:30:12;;;;;;;18.20;14.85;;;;;;;;;;5081800;28;20044;-81
2023/05/05 10:32:38;;;;;;;16.23;14.60;;;;;;;;;;5074781;28;20048;-82
2023/05/05 10:35:07;;;;;;;17.77;15.00;;;;;;;;;;5080005;28;20037;-82
2023/05/05 10:37:36;;;;;;;17.35;14.40;;;;;;;;;;5081532;28;20503;-82
2023/05/05 10:40:02;;;;;;;16.33;14.55;;;;;;;;;;5082113;28;20044;-81
2023/05/05 10:42:28;;;;;;;16.40;14.70;;;;;;;;;;5082681;28;20060;-82
2023/05/05 10:44:54;;;;;;;17.98;15.68;;;;;;;;;;5081933;28;20045;-82
2023/05/05 10:47:21;;;;;;;15.90;14.10;;;;;;;;;;5081751;28;20059;-83
2023/05/05 10:49:56;;;;;;;17.88;15.38;;;;;;;;;;5082168;28;20049;-83
2023/05/05 10:52:22;;;;;;;18.08;15.10;;;;;;;;;;5082046;28;20056;-83
2023/05/05 10:54:53;;;;;;;17.13;15.05;;;;;;;;;;5082630;28;20074;-81
2023/05/05 10:57:21;;;;;;;16.90;15.10;;;;;;;;;;5075941;28;20405;-82
2023/05/05 10:59:47;;;;;;;16.55;14.70;;;;;;;;;;5080700;28;20102;-82
2023/05/05 11:02:25;;;;;;;18.42;14.52;;;;;;;;;;5080135;28;20046;-83
2023/05/05 11:05:16;;;;;;;14.65;13.05;;;;;;;;;;5078488;28;20056;-83
2023/05/05 11:07:42;;;;;;;;;;;;;;;;;;5064030;28;20037;-83
2023/05/05 11:10:09;;;;;;;15.60;11.63;;;;;;;;;;5076541;28;19925;-83
2023/05/05 11:12:54;;;;;;;12.98;11.57;;;;;;;;;;5076204;28;20178;-81
2023/05/05 11:15:25;;;;;;;14.13;11.90;;;;;;;;;;5081106;28;20486;-82
2023/05/05 11:17:52;;;;;;;14.20;11.10;;;;;;;;;;5081477;28;20045;-82
2023/05/05 11:20:38;;;;;;;15.25;9.93;;;;;;;;;;5080837;28;20510;-82
2023/05/05 11:23:04;;;;;;;16.13;12.43;;;;;;;;;;5081108;28;20072;-82
2023/05/05 11:25:39;;;;;;;13.80;9.80;;;;;;;;;;5081572;28;20098;-82
2023/05/05 11:28:09;;;;;;;15.00;10.73;;;;;;;;;;5078860;28;20059;-82
2023/05/05 11:30:56;;;;;;;13.48;11.23;;;;;;;;;;5079322;28;20136;-82
2023/05/05 11:33:40;;;;;;;15.23;11.02;;;;;;;;;;5076221;28;20055;-81
2023/05/05 11:36:06;;;;;;;13.15;8.63;;;;;;;;;;5080232;28;20068;-82
2023/05/05 11:38:32;;;;;;;10.95;8.07;;;;;;;;;;5079367;28;20037;-82
2023/05/05 11:41:08;;;;;;;9.77;7.05;;;;;;;;;;5082294;28;20070;-83
2023/05/05 11:43:34;;;;;;;9.10;5.80;;;;;;;;;;5080198;28;20045;-82
2023/05/05 11:46:13;;;;;;;12.52;7.43;;;;;;;;;;5081045;28;20116;-81
2023/05/05 11:48:49;;;;;;;10.30;6.38;;;;;;;;;;5080561;28;20052;-82
2023/05/05 11:51:18;;;;;;;9.63;7.30;;;;;;;;;;5080833;28;20448;-81
2023/05/05 11:53:45;;;;;;;11.13;8.45;;;;;;;;;;5080047;28;20052;-81
2023/05/05 11:56:17;;;;;;;14.18;9.73;;;;;;;;;;5079510;28;20571;-81
2023/05/05 11:58:44;;;;;;;12.65;9.00;;;;;;;;;;5079982;28;20041;-81
2023/05/05 12:01:10;;;;;;;11.43;9.05;;;;;;;;;;5079562;28;20048;-81
2023/05/05 12:03:39;;;;;;;13.10;9.20;;;;;;;;;;5082722;28;20072;-81
2023/05/05 12:06:06;;;;;;;13.32;9.25;;;;;;;;;;5081084;28;20483;-82
2023/05/05 12:08:35;;;;;;;10.38;8.68;;;;;;;;;;5082009;28;20044;-81
2023/05/05 12:11:02;;;;;;;10.43;8.93;;;;;;;;;;5079493;28;20040;-82
2023/05/05 12:13:29;;;;;;;10.68;7.60;;;;;;;;;;5078874;28;20076;-81
2023/05/05 12:15:55;;;;;;;10.15;5.78;;;;;;;;;;5078649;28;20442;-80
2023/05/05 12:18:21;;;;;;;8.73;5.72;;;;;;;;;;5077947;28;20045;-80
2023/05/05 12:20:47;;;;;;;8.05;5.82;;;;;;;;;;5078522;28;20060;-82
2023/05/05 12:23:13;;;;;;;11.68;5.88;;;;;;;;;;5078463;28;20123;-81
2023/05/05 12:25:40;;;;;;;9.75;6.28;;;;;;;;;;5078480;28;20166;-82
2023/05/05 12:28:09;;;;;;;10.75;5.63;;;;;;;;;;5078338;28;20083;-81
2023/05/05 12:30:35;;;;;;;8.07;5.00;;;;;;;;;;5077454;28;20051;-81
2023/05/05 12:33:05;;;;;;;8.55;5.97;;;;;;;;;;5077453;28;20098;-81
2023/05/05 12:35:32;;;;;;;11.60;6.13;;;;;;;;;;5078158;28;20090;-82
2023/05/05 12:37:58;;;;;;;8.27;4.95;;;;;;;;;;5076755;28;20113;-81
2023/05/05 12:40:43;;;;;;;8.18;3.85;;;;;;;;;;5078466;28;20705;-82
2023/05/05 12:43:10;;;;;;;8.88;4.03;;;;;;;;;;5078592;28;20043;-82
2023/05/05 12:45:36;;;;;;;13.15;4.05;;;;;;;;;;5078945;28;20037;-81
2023/05/05 12:48:02;;;;;;;8.85;3.92;;;;;;;;;;5080980;28;20051;-81
2023/05/05 12:50:31;;;;;;;7.95;3.42;;;;;;;;;;5082923;28;20057;-81
2023/05/05 12:52:57;;;;;;;9.75;3.63;;;;;;;;;;5083831;28;20052;-81
2023/05/05 12:55:41;;;;;;;8.45;3.08;;;;;;;;;;5083698;28;20048;-81
2023/05/05 12:58:07;;;;;;;8.40;3.50;;;;;;;;;;5083646;28;20047;-82
2023/05/05 13:00:33;;;;;;;7.32;3.13;;;;;;;;;;5083630;28;20040;-81
2023/05/05 13:03:00;;;;;;;6.28;3.05;;;;;;;;;;5083609;28;20487;-81
2023/05/05 13:05:33;;;;;;;8.77;3.00;;;;;;;;;;5083285;28;20460;-81
2023/05/05 13:07:59;;;;;;;6.35;3.30;;;;;;;;;;5082967;28;20119;-81
2023/05/05 13:10:25;;;;;;;8.25;3.85;;;;;;;;;;5082270;28;20395;-82
2023/05/05 13:12:55;;;;;;;7.75;3.33;;;;;;;;;;5082106;28;20128;-80
2023/05/05 13:15:21;;;;;;;8.43;3.10;;;;;;;;;;5083087;28;20051;-82
2023/05/05 13:17:47;;;;;;;8.68;3.00;;;;;;;;;;5082814;28;20041;-82
2023/05/05 13:20:13;;;;;;;7.80;3.20;;;;;;;;;;5082987;28;20048;-81
2023/05/05 13:22:39;;;;;;;6.35;3.13;;;;;;;;;;5083309;28;20076;-81
2023/05/05 13:25:06;;;;;;;8.27;3.13;;;;;;;;;;5083444;28;20037;-80
2023/05/05 13:27:32;;;;;;;8.45;3.22;;;;;;;;;;5083627;28;20056;-80
2023/05/05 13:29:58;;;;;;;6.88;3.47;;;;;;;;;;5083859;28;20056;-82
2023/05/05 13:32:24;;;;;;;6.45;3.38;;;;;;;;;;5083149;28;20044;-81
2023/05/05 13:34:50;;;;;;;7.72;3.15;;;;;;;;;;5083424;28;20068;-81
2023/05/05 13:37:16;;;;;;;7.57;2.20;;;;;;;;;;5082698;28;20041;-81
2023/05/05 13:39:42;;;;;;;6.93;3.10;;;;;;;;;;5082397;28;20063;-81
2023/05/05 13:42:08;;;;;;;5.32;1.75;;;;;;;;;;5082548;28;20147;-81
2023/05/05 13:44:34;;;;;;;7.32;1.73;;;;;;;;;;5081254;28;20411;-81
2023/05/05 13:47:01;;;;;;;7.65;1.33;;;;;;;;;;5083074;28;20099;-81
2023/05/05 13:49:27;;;;;;;7.25;1.42;;;;;;;;;;5083762;28;20040;-80
2023/05/05 13:51:54;;;;;;;8.80;1.40;;;;;;;;;;5082398;28;20055;-80
2023/05/05 13:54:20;;;;;;;4.45;1.10;;;;;;;;;;5081489;28;20113;-81
2023/05/05 13:56:49;;;;;;;3.45;0.75;;;;;;;;;;5080103;28;20060;-82
2023/05/05 13:59:14;;;;;;;3.30;0.75;;;;;;;;;;5080079;28;20052;-83
2023/05/05 14:01:41;;;;;;;6.75;0.80;;;;;;;;;;5081504;28;20104;-82
2023/05/05 14:04:07;;;;;;;4.82;0.88;;;;;;;;;;5081784;28;20083;-81
2023/05/05 14:06:34;;;;;;;4.93;0.80;;;;;;;;;;5081590;28;20079;-82
2023/05/05 14:09:04;;;;;;;4.05;1.02;;;;;;;;;;5081508;28;20044;-82
2023/05/05 14:11:30;;;;;;;4.07;0.80;;;;;;;;;;5082099;28;20048;-81
2023/05/05 14:13:56;;;;;;;5.55;0.80;;;;;;;;;;5082097;28;20040;-82
2023/05/05 14:16:22;;;;;;;4.30;0.95;;;;;;;;;;5087692;28;20045;-82
2023/05/05 14:18:48;;;;;;;5.75;1.10;;;;;;;;;;5090098;28;20093;-81
2023/05/05 14:21:14;;;;;;;5.20;1.23;;;;;;;;;;5085880;28;20072;-82
2023/05/05 14:23:40;;;;;;;6.18;1.30;;;;;;;;;;5084875;28;20093;-82
2023/05/05 14:26:07;;;;;;;6.75;1.63;;;;;;;;;;5081969;28;20048;-83
2023/05/05 14:28:33;;;;;;;5.85;1.33;;;;;;;;;;5081990;28;20058;-82
2023/05/05 14:30:59;;;;;;;6.35;1.40;;;;;;;;;;5080842;28;20119;-81
2023/05/05 14:33:25;;;;;;;6.07;1.20;;;;;;;;;;5080962;28;20044;-82